sensor_id;sensor_type;location;lat;lon;timestamp;pressure;altitude;pressure_sealevel;temperature;humidity
68145;BME280;55400;51.824;-0.196;2022-08-27T00:00:48;100917.72;;;17.96;63.72
68145;BME280;55400;51.824;-0.196;2022-08-27T00:03:16;100920.38;;;17.96;63.66
68145;BME280;55400;51.824;-0.196;2022-08-27T00:05:43;100917.22;;;17.91;64.13
68145;BME280;55400;51.824;-0.196;2022-08-27T00:08:11;100911.78;;;17.93;63.85
68145;BME280;55400;51.824;-0.196;2022-08-27T00:10:39;100912.72;;;17.92;64.54
68145;BME280;55400;51.824;-0.196;2022-08-27T00:13:07;100911.88;;;17.91;64.13
68145;BME280;55400;51.824;-0.196;2022-08-27T00:15:33;100910.16;;;17.90;64.64
68145;BME280;55400;51.824;-0.196;2022-08-27T00:18:01;100907.81;;;17.86;64.57
68145;BME280;55400;51.824;-0.196;2022-08-27T00:20:27;100899.91;;;17.84;64.49
68145;BME280;55400;51.824;-0.196;2022-08-27T00:22:54;100906.84;;;17.87;64.92
68145;BME280;55400;51.824;-0.196;2022-08-27T00:25:21;100907.81;;;17.86;65.16
68145;BME280;55400;51.824;-0.196;2022-08-27T00:27:49;100910.28;;;17.89;64.72
68145;BME280;55400;51.824;-0.196;2022-08-27T00:30:18;100906.97;;;17.85;65.23
68145;BME280;55400;51.824;-0.196;2022-08-27T00:32:45;100908.75;;;17.85;65.24
68145;BME280;55400;51.824;-0.196;2022-08-27T00:35:12;100907.19;;;17.82;65.33
68145;BME280;55400;51.824;-0.196;2022-08-27T00:37:42;100907.28;;;17.80;65.05
68145;BME280;55400;51.824;-0.196;2022-08-27T00:40:14;100904.00;;;17.77;65.38
68145;BME280;55400;51.824;-0.196;2022-08-27T00:42:41;100904.97;;;17.76;65.51
68145;BME280;55400;51.824;-0.196;2022-08-27T00:45:13;100908.47;;;17.76;65.37
68145;BME280;55400;51.824;-0.196;2022-08-27T00:47:44;100904.75;;;17.79;65.45
68145;BME280;55400;51.824;-0.196;2022-08-27T00:50:16;100894.28;;;17.76;65.64
68145;BME280;55400;51.824;-0.196;2022-08-27T00:52:47;100897.69;;;17.78;65.59
68145;BME280;55400;51.824;-0.196;2022-08-27T00:55:20;100901.13;;;17.80;65.88
68145;BME280;55400;51.824;-0.196;2022-08-27T00:58:13;100903.03;;;17.78;65.58
68145;BME280;55400;51.824;-0.196;2022-08-27T01:00:38;100909.13;;;17.80;65.50
68145;BME280;55400;51.824;-0.196;2022-08-27T01:03:06;100903.78;;;17.80;65.81
68145;BME280;55400;51.824;-0.196;2022-08-27T01:05:35;100899.41;;;17.79;65.79
68145;BME280;55400;51.824;-0.196;2022-08-27T01:08:07;100901.44;;;17.75;66.05
68145;BME280;55400;51.824;-0.196;2022-08-27T01:10:37;100898.13;;;17.72;66.25
68145;BME280;55400;51.824;-0.196;2022-08-27T01:13:09;100893.88;;;17.69;65.76
68145;BME280;55400;51.824;-0.196;2022-08-27T01:15:38;100894.84;;;17.68;66.38
68145;BME280;55400;51.824;-0.196;2022-08-27T01:18:07;100898.34;;;17.69;66.60
68145;BME280;55400;51.824;-0.196;2022-08-27T01:25:56;100901.56;;;17.61;66.71
68145;BME280;55400;51.824;-0.196;2022-08-27T01:28:24;100896.34;;;17.59;66.78
68145;BME280;55400;51.824;-0.196;2022-08-27T01:31:05;100906.94;;;17.48;67.37
68145;BME280;55400;51.824;-0.196;2022-08-27T01:33:33;100897.75;;;17.52;66.59
68145;BME280;55400;51.824;-0.196;2022-08-27T01:36:01;100903.84;;;17.54;66.67
68145;BME280;55400;51.824;-0.196;2022-08-27T01:38:28;100895.84;;;17.54;66.34
68145;BME280;55400;51.824;-0.196;2022-08-27T01:40:58;100895.63;;;17.57;66.50
68145;BME280;55400;51.824;-0.196;2022-08-27T01:43:26;100899.13;;;17.58;66.71
68145;BME280;55400;51.824;-0.196;2022-08-27T01:45:53;100888.56;;;17.56;66.51
68145;BME280;55400;51.824;-0.196;2022-08-27T01:48:20;100891.22;;;17.56;66.94
68145;BME280;55400;51.824;-0.196;2022-08-27T01:50:47;100882.63;;;17.53;66.99
68145;BME280;55400;51.824;-0.196;2022-08-27T01:53:19;100890.81;;;17.50;67.16
68145;BME280;55400;51.824;-0.196;2022-08-27T01:55:47;100881.13;;;17.49;66.81
68145;BME280;55400;51.824;-0.196;2022-08-27T01:58:16;100897.09;;;17.49;66.84
68145;BME280;55400;51.824;-0.196;2022-08-27T02:00:46;100892.00;;;17.45;66.83
68145;BME280;55400;51.824;-0.196;2022-08-27T02:03:21;100891.38;;;17.42;67.13
68145;BME280;55400;51.824;-0.196;2022-08-27T02:05:48;100888.81;;;17.40;67.08
68145;BME280;55400;51.824;-0.196;2022-08-27T02:08:15;100884.56;;;17.38;67.07
68145;BME280;55400;51.824;-0.196;2022-08-27T02:10:44;100891.81;;;17.36;67.13
68145;BME280;55400;51.824;-0.196;2022-08-27T02:13:12;100885.75;;;17.34;67.70
68145;BME280;55400;51.824;-0.196;2022-08-27T02:15:39;100886.59;;;17.34;67.48
68145;BME280;55400;51.824;-0.196;2022-08-27T02:18:07;100894.69;;;17.33;67.31
68145;BME280;55400;51.824;-0.196;2022-08-27T02:20:35;100890.44;;;17.30;67.27
68145;BME280;55400;51.824;-0.196;2022-08-27T02:23:02;100888.94;;;17.26;67.42
68145;BME280;55400;51.824;-0.196;2022-08-27T02:25:30;100886.72;;;17.20;67.62
68145;BME280;55400;51.824;-0.196;2022-08-27T02:27:58;100888.84;;;17.15;67.65
68145;BME280;55400;51.824;-0.196;2022-08-27T02:30:27;100899.84;;;17.10;67.43
68145;BME280;55400;51.824;-0.196;2022-08-27T02:32:55;100895.56;;;17.07;67.37
68145;BME280;55400;51.824;-0.196;2022-08-27T02:35:23;100904.19;;;16.98;67.28
68145;BME280;55400;51.824;-0.196;2022-08-27T02:37:50;100905.50;;;16.93;67.89
68145;BME280;55400;51.824;-0.196;2022-08-27T02:40:20;100901.31;;;16.88;67.66
68145;BME280;55400;51.824;-0.196;2022-08-27T02:42:48;100900.59;;;16.86;67.57
68145;BME280;55400;51.824;-0.196;2022-08-27T02:45:16;100897.81;;;16.88;67.57
68145;BME280;55400;51.824;-0.196;2022-08-27T02:47:43;100900.47;;;16.88;67.75
68145;BME280;55400;51.824;-0.196;2022-08-27T02:50:11;100890.00;;;16.85;67.68
68145;BME280;55400;51.824;-0.196;2022-08-27T02:52:39;100893.59;;;16.84;67.75
68145;BME280;55400;51.824;-0.196;2022-08-27T02:55:07;100897.13;;;16.84;68.12
68145;BME280;55400;51.824;-0.196;2022-08-27T02:57:34;100889.13;;;16.84;67.75
68145;BME280;55400;51.824;-0.196;2022-08-27T03:00:14;100891.06;;;16.82;67.99
68145;BME280;55400;51.824;-0.196;2022-08-27T03:02:43;100891.16;;;16.81;67.85
68145;BME280;55400;51.824;-0.196;2022-08-27T03:05:11;100894.13;;;16.76;67.71
68145;BME280;55400;51.824;-0.196;2022-08-27T03:07:39;100889.13;;;16.71;67.73
68145;BME280;55400;51.824;-0.196;2022-08-27T03:10:07;100897.09;;;16.71;68.12
68145;BME280;55400;51.824;-0.196;2022-08-27T03:12:35;100899.03;;;16.69;67.82
68145;BME280;55400;51.824;-0.196;2022-08-27T03:15:08;100900.09;;;16.67;68.19
68145;BME280;55400;51.824;-0.196;2022-08-27T03:17:35;100902.22;;;16.62;68.38
68145;BME280;55400;51.824;-0.196;2022-08-27T03:20:21;100903.25;;;16.59;68.09
68145;BME280;55400;51.824;-0.196;2022-08-27T03:22:49;100901.00;;;16.53;68.27
68145;BME280;55400;51.824;-0.196;2022-08-27T03:25:15;100896.66;;;16.52;68.16
68145;BME280;55400;51.824;-0.196;2022-08-27T03:27:42;100895.25;;;16.46;68.04
68145;BME280;55400;51.824;-0.196;2022-08-27T03:30:16;100897.19;;;16.44;68.15
68145;BME280;55400;51.824;-0.196;2022-08-27T03:32:43;100896.31;;;16.44;68.34
68145;BME280;55400;51.824;-0.196;2022-08-27T03:35:11;100901.53;;;16.45;68.08
68145;BME280;55400;51.824;-0.196;2022-08-27T03:37:38;100899.28;;;16.39;68.39
68145;BME280;55400;51.824;-0.196;2022-08-27T03:40:06;100891.69;;;16.33;68.50
68145;BME280;55400;51.824;-0.196;2022-08-27T03:42:34;100893.81;;;16.28;68.52
68145;BME280;55400;51.824;-0.196;2022-08-27T03:45:01;100894.00;;;16.25;68.54
68145;BME280;55400;51.824;-0.196;2022-08-27T03:47:29;100892.31;;;16.24;68.42
68145;BME280;55400;51.824;-0.196;2022-08-27T03:49:55;100897.81;;;16.20;68.39
68145;BME280;55400;51.824;-0.196;2022-08-27T03:52:22;100892.63;;;16.19;68.55
68145;BME280;55400;51.824;-0.196;2022-08-27T03:54:49;100890.06;;;16.17;68.44
68145;BME280;55400;51.824;-0.196;2022-08-27T03:57:16;100889.31;;;16.15;68.50
68145;BME280;55400;51.824;-0.196;2022-08-27T03:59:43;100887.63;;;16.14;68.51
68145;BME280;55400;51.824;-0.196;2022-08-27T04:02:10;100892.16;;;16.12;68.69
68145;BME280;55400;51.824;-0.196;2022-08-27T04:04:40;100901.00;;;16.13;68.76
68145;BME280;55400;51.824;-0.196;2022-08-27T04:07:07;100895.78;;;16.11;68.77
68145;BME280;55400;51.824;-0.196;2022-08-27T04:09:35;100889.69;;;16.09;68.95
68145;BME280;55400;51.824;-0.196;2022-08-27T04:12:02;100888.13;;;16.07;69.11
68145;BME280;55400;51.824;-0.196;2022-08-27T04:14:29;100896.19;;;16.05;69.00
68145;BME280;55400;51.824;-0.196;2022-08-27T04:16:56;100890.97;;;16.04;69.15
68145;BME280;55400;51.824;-0.196;2022-08-27T04:19:24;100889.06;;;16.06;69.22
68145;BME280;55400;51.824;-0.196;2022-08-27T04:21:58;100893.63;;;16.04;68.94
68145;BME280;55400;51.824;-0.196;2022-08-27T04:24:26;100890.88;;;16.05;69.23
68145;BME280;55400;51.824;-0.196;2022-08-27T04:26:53;100890.09;;;16.03;69.14
68145;BME280;55400;51.824;-0.196;2022-08-27T04:29:19;100894.38;;;16.06;69.13
68145;BME280;55400;51.824;-0.196;2022-08-27T04:31:46;100891.72;;;16.06;69.17
68145;BME280;55400;51.824;-0.196;2022-08-27T04:34:13;100899.69;;;16.06;69.33
68145;BME280;55400;51.824;-0.196;2022-08-27T04:36:41;100903.16;;;15.93;69.94
68145;BME280;55400;51.824;-0.196;2022-08-27T04:39:08;100892.31;;;15.96;69.36
68145;BME280;55400;51.824;-0.196;2022-08-27T04:41:35;100897.53;;;15.98;69.26
68145;BME280;55400;51.824;-0.196;2022-08-27T04:44:07;100900.84;;;16.01;69.30
68145;BME280;55400;51.824;-0.196;2022-08-27T04:46:37;100899.78;;;16.04;69.70
68145;BME280;55400;51.824;-0.196;2022-08-27T04:49:07;100900.53;;;16.06;69.51
68145;BME280;55400;51.824;-0.196;2022-08-27T04:51:36;100898.09;;;16.03;69.64
68145;BME280;55400;51.824;-0.196;2022-08-27T04:54:06;100901.50;;;16.05;69.47
68145;BME280;55400;51.824;-0.196;2022-08-27T04:56:35;100893.63;;;16.04;69.60
68145;BME280;55400;51.824;-0.196;2022-08-27T04:59:03;100894.13;;;15.96;69.95
68145;BME280;55400;51.824;-0.196;2022-08-27T05:01:30;100902.47;;;16.04;69.43
68145;BME280;55400;51.824;-0.196;2022-08-27T05:03:57;100899.59;;;16.07;69.61
68145;BME280;55400;51.824;-0.196;2022-08-27T05:06:24;100896.84;;;16.09;69.30
68145;BME280;55400;51.824;-0.196;2022-08-27T05:08:52;100897.69;;;16.09;69.54
68145;BME280;55400;51.824;-0.196;2022-08-27T05:11:20;100897.47;;;16.12;69.63
68145;BME280;55400;51.824;-0.196;2022-08-27T05:13:48;100909.84;;;16.13;69.72
68145;BME280;55400;51.824;-0.196;2022-08-27T05:16:18;100907.38;;;16.10;69.65
68145;BME280;55400;51.824;-0.196;2022-08-27T05:18:46;100902.16;;;16.09;69.84
68145;BME280;55400;51.824;-0.196;2022-08-27T05:21:17;100907.69;;;16.06;70.06
68145;BME280;55400;51.824;-0.196;2022-08-27T05:23:44;100908.72;;;16.03;69.63
68145;BME280;55400;51.824;-0.196;2022-08-27T05:26:11;100907.03;;;16.02;70.05
68145;BME280;55400;51.824;-0.196;2022-08-27T05:28:37;100902.56;;;16.02;69.98
68145;BME280;55400;51.824;-0.196;2022-08-27T05:31:09;100906.94;;;16.04;70.04
68145;BME280;55400;51.824;-0.196;2022-08-27T05:33:37;100907.78;;;16.04;69.74
68145;BME280;55400;51.824;-0.196;2022-08-27T05:36:06;100900.75;;;16.03;70.01
68145;BME280;55400;51.824;-0.196;2022-08-27T05:38:33;100900.94;;;16.00;70.15
68145;BME280;55400;51.824;-0.196;2022-08-27T05:41:09;100913.59;;;15.96;69.93
68145;BME280;55400;51.824;-0.196;2022-08-27T05:43:37;100911.22;;;15.92;70.19
68145;BME280;55400;51.824;-0.196;2022-08-27T05:46:06;100910.59;;;15.88;69.95
68145;BME280;55400;51.824;-0.196;2022-08-27T05:48:35;100921.41;;;15.85;70.14
68145;BME280;55400;51.824;-0.196;2022-08-27T05:51:29;100909.72;;;15.73;70.22
68145;BME280;55400;51.824;-0.196;2022-08-27T05:53:59;100919.41;;;15.74;70.27
68145;BME280;55400;51.824;-0.196;2022-08-27T05:56:34;100925.56;;;15.75;70.32
68145;BME280;55400;51.824;-0.196;2022-08-27T05:59:01;100925.41;;;15.78;70.37
68145;BME280;55400;51.824;-0.196;2022-08-27T06:01:48;100927.03;;;15.80;70.51
68145;BME280;55400;51.824;-0.196;2022-08-27T06:04:17;100939.94;;;15.87;70.17
68145;BME280;55400;51.824;-0.196;2022-08-27T06:06:44;100927.38;;;15.89;70.24
68145;BME280;55400;51.824;-0.196;2022-08-27T06:09:15;100922.25;;;15.86;70.32
68145;BME280;55400;51.824;-0.196;2022-08-27T06:11:42;100927.66;;;15.84;70.15
68145;BME280;55400;51.824;-0.196;2022-08-27T06:14:09;100924.16;;;15.83;70.13
68145;BME280;55400;51.824;-0.196;2022-08-27T06:16:37;100924.16;;;15.83;70.34
68145;BME280;55400;51.824;-0.196;2022-08-27T06:19:05;100927.38;;;15.74;71.33
68145;BME280;55400;51.824;-0.196;2022-08-27T06:21:33;100926.81;;;15.83;70.52
68145;BME280;55400;51.824;-0.196;2022-08-27T06:24:00;100923.97;;;15.87;70.20
68145;BME280;55400;51.824;-0.196;2022-08-27T06:26:27;100922.81;;;15.91;70.29
68145;BME280;55400;51.824;-0.196;2022-08-27T06:28:53;100926.16;;;15.94;70.22
68145;BME280;55400;51.824;-0.196;2022-08-27T06:31:25;100924.34;;;15.95;70.45
68145;BME280;55400;51.824;-0.196;2022-08-27T06:33:57;100931.06;;;16.00;70.64
68145;BME280;55400;51.824;-0.196;2022-08-27T06:36:35;100940.53;;;16.05;70.33
68145;BME280;55400;51.824;-0.196;2022-08-27T06:39:03;100935.91;;;16.08;70.36
68145;BME280;55400;51.824;-0.196;2022-08-27T06:41:30;100938.34;;;16.11;70.52
68145;BME280;55400;51.824;-0.196;2022-08-27T06:43:58;100943.38;;;16.16;70.71
68145;BME280;55400;51.824;-0.196;2022-08-27T06:46:26;100940.53;;;16.19;70.31
68145;BME280;55400;51.824;-0.196;2022-08-27T06:48:57;100944.47;;;16.26;70.09
68145;BME280;55400;51.824;-0.196;2022-08-27T06:51:29;100947.66;;;16.31;70.39
68145;BME280;55400;51.824;-0.196;2022-08-27T06:53:59;100943.03;;;16.35;70.71
68145;BME280;55400;51.824;-0.196;2022-08-27T06:56:27;100946.34;;;16.38;70.33
68145;BME280;55400;51.824;-0.196;2022-08-27T06:58:56;100951.25;;;16.45;70.72
68145;BME280;55400;51.824;-0.196;2022-08-27T07:01:29;100946.66;;;16.47;70.52
68145;BME280;55400;51.824;-0.196;2022-08-27T07:03:59;100950.75;;;16.52;70.67
68145;BME280;55400;51.824;-0.196;2022-08-27T07:06:28;100955.75;;;16.57;70.68
68145;BME280;55400;51.824;-0.196;2022-08-27T07:08:56;100958.13;;;16.62;70.72
68145;BME280;55400;51.824;-0.196;2022-08-27T07:11:23;100960.56;;;16.65;70.58
68145;BME280;55400;51.824;-0.196;2022-08-27T07:13:50;100962.06;;;16.69;70.56
68145;BME280;55400;51.824;-0.196;2022-08-27T07:16:20;100971.47;;;16.74;70.49
68145;BME280;55400;51.824;-0.196;2022-08-27T07:18:50;100972.88;;;16.80;70.79
68145;BME280;55400;51.824;-0.196;2022-08-27T07:21:18;100969.03;;;16.84;70.48
68145;BME280;55400;51.824;-0.196;2022-08-27T07:23:47;100979.41;;;16.89;70.79
68145;BME280;55400;51.824;-0.196;2022-08-27T07:26:14;100979.59;;;16.86;71.29
68145;BME280;55400;51.824;-0.196;2022-08-27T07:28:42;100977.50;;;16.91;70.55
68145;BME280;55400;51.824;-0.196;2022-08-27T07:31:10;100980.81;;;16.95;71.02
68145;BME280;55400;51.824;-0.196;2022-08-27T07:33:39;100980.28;;;17.02;70.36
68145;BME280;55400;51.824;-0.196;2022-08-27T07:36:16;100991.16;;;17.12;70.00
68145;BME280;55400;51.824;-0.196;2022-08-27T07:38:42;100985.53;;;17.17;70.07
68145;BME280;55400;51.824;-0.196;2022-08-27T07:41:22;100988.59;;;17.23;69.71
68145;BME280;55400;51.824;-0.196;2022-08-27T07:43:55;100985.31;;;17.33;69.50
68145;BME280;55400;51.824;-0.196;2022-08-27T07:46:42;100990.22;;;17.39;69.63
68145;BME280;55400;51.824;-0.196;2022-08-27T07:49:14;100989.78;;;17.45;69.47
68145;BME280;55400;51.824;-0.196;2022-08-27T07:51:41;100992.03;;;17.51;69.23
68145;BME280;55400;51.824;-0.196;2022-08-27T07:54:08;100989.66;;;17.59;68.96
68145;BME280;55400;51.824;-0.196;2022-08-27T07:56:35;100993.63;;;17.67;68.85
68145;BME280;55400;51.824;-0.196;2022-08-27T07:59:02;100988.81;;;17.72;68.76
68145;BME280;55400;51.824;-0.196;2022-08-27T08:01:29;100993.69;;;17.78;68.67
68145;BME280;55400;51.824;-0.196;2022-08-27T08:03:55;100993.28;;;17.84;68.23
68145;BME280;55400;51.824;-0.196;2022-08-27T08:06:22;100990.31;;;17.89;68.35
68145;BME280;55400;51.824;-0.196;2022-08-27T08:08:49;100992.66;;;17.93;68.36
68145;BME280;55400;51.824;-0.196;2022-08-27T08:11:18;100977.38;;;17.95;68.09
68145;BME280;55400;51.824;-0.196;2022-08-27T08:13:46;100988.69;;;17.99;68.26
68145;BME280;55400;51.824;-0.196;2022-08-27T08:16:13;100983.13;;;18.02;68.00
68145;BME280;55400;51.824;-0.196;2022-08-27T08:18:40;100981.19;;;18.04;67.65
68145;BME280;55400;51.824;-0.196;2022-08-27T08:21:10;100987.16;;;18.08;68.16
68145;BME280;55400;51.824;-0.196;2022-08-27T08:23:37;100997.63;;;18.11;68.03
68145;BME280;55400;51.824;-0.196;2022-08-27T08:26:04;100996.66;;;18.12;67.96
68145;BME280;55400;51.824;-0.196;2022-08-27T08:28:31;100992.16;;;18.12;67.61
68145;BME280;55400;51.824;-0.196;2022-08-27T08:30:58;100990.03;;;18.17;67.50
68145;BME280;55400;51.824;-0.196;2022-08-27T08:33:25;100991.59;;;18.20;67.26
68145;BME280;55400;51.824;-0.196;2022-08-27T08:35:53;100993.09;;;18.24;67.42
68145;BME280;55400;51.824;-0.196;2022-08-27T08:38:20;100996.28;;;18.29;67.47
68145;BME280;55400;51.824;-0.196;2022-08-27T08:40:49;101002.22;;;18.33;67.39
68145;BME280;55400;51.824;-0.196;2022-08-27T08:43:38;100999.44;;;18.34;67.12
68145;BME280;55400;51.824;-0.196;2022-08-27T08:46:36;100998.28;;;18.39;66.56
68145;BME280;55400;51.824;-0.196;2022-08-27T08:51:51;100989.69;;;18.46;66.69
68145;BME280;55400;51.824;-0.196;2022-08-27T08:54:23;101000.03;;;18.51;66.27
68145;BME280;55400;51.824;-0.196;2022-08-27T08:57:03;100992.66;;;18.55;65.82
68145;BME280;55400;51.824;-0.196;2022-08-27T08:59:41;101001.41;;;18.57;65.47
68145;BME280;55400;51.824;-0.196;2022-08-27T09:02:12;101003.75;;;18.61;65.21
68145;BME280;55400;51.824;-0.196;2022-08-27T09:04:41;100998.91;;;18.66;65.50
68145;BME280;55400;51.824;-0.196;2022-08-27T09:12:19;101010.69;;;18.75;64.42
68145;BME280;55400;51.824;-0.196;2022-08-27T09:17:19;101010.34;;;18.80;64.15
68145;BME280;55400;51.824;-0.196;2022-08-27T09:19:46;101010.13;;;18.83;64.01
68145;BME280;55400;51.824;-0.196;2022-08-27T09:22:31;101010.69;;;18.88;63.66
68145;BME280;55400;51.824;-0.196;2022-08-27T09:25:19;101014.81;;;18.92;63.35
68145;BME280;55400;51.824;-0.196;2022-08-27T09:27:57;101009.34;;;18.94;63.21
68145;BME280;55400;51.824;-0.196;2022-08-27T09:30:31;101013.63;;;18.96;62.82
68145;BME280;55400;51.824;-0.196;2022-08-27T09:33:02;101017.88;;;18.99;62.34
68145;BME280;55400;51.824;-0.196;2022-08-27T09:35:40;101015.72;;;19.04;62.28
68145;BME280;55400;51.824;-0.196;2022-08-27T09:38:08;101014.38;;;19.10;62.55
68145;BME280;55400;51.824;-0.196;2022-08-27T09:40:47;101011.47;;;19.13;61.84
68145;BME280;55400;51.824;-0.196;2022-08-27T09:45:47;101019.66;;;19.22;62.18
68145;BME280;55400;51.824;-0.196;2022-08-27T09:48:18;101014.41;;;19.21;61.87
68145;BME280;55400;51.824;-0.196;2022-08-27T09:50:48;101024.59;;;19.16;61.91
68145;BME280;55400;51.824;-0.196;2022-08-27T09:53:29;101015.97;;;19.12;61.62
68145;BME280;55400;51.824;-0.196;2022-08-27T09:56:00;101017.56;;;19.15;61.73
68145;BME280;55400;51.824;-0.196;2022-08-27T10:01:22;101011.88;;;19.19;60.95
68145;BME280;55400;51.824;-0.196;2022-08-27T10:03:50;101005.53;;;19.20;61.09
68145;BME280;55400;51.824;-0.196;2022-08-27T10:06:30;101009.91;;;19.21;60.32
68145;BME280;55400;51.824;-0.196;2022-08-27T10:09:09;101011.63;;;19.22;60.54
68145;BME280;55400;51.824;-0.196;2022-08-27T10:12:14;101019.41;;;19.26;60.09
68145;BME280;55400;51.824;-0.196;2022-08-27T10:14:49;101009.81;;;19.34;60.02
68145;BME280;55400;51.824;-0.196;2022-08-27T10:17:23;101010.94;;;19.43;59.61
68145;BME280;55400;51.824;-0.196;2022-08-27T10:39:48;100997.72;;;19.98;57.07
68145;BME280;55400;51.824;-0.196;2022-08-27T10:42:38;100997.09;;;20.06;56.89
68145;BME280;55400;51.824;-0.196;2022-08-27T10:47:48;100998.16;;;20.26;55.74
68145;BME280;55400;51.824;-0.196;2022-08-27T10:53:25;100991.31;;;20.33;54.89
68145;BME280;55400;51.824;-0.196;2022-08-27T10:56:20;100997.88;;;20.40;54.14
68145;BME280;55400;51.824;-0.196;2022-08-27T10:59:04;100998.81;;;20.50;54.18
68145;BME280;55400;51.824;-0.196;2022-08-27T11:02:05;100992.72;;;20.60;53.87
68145;BME280;55400;51.824;-0.196;2022-08-27T11:04:43;100987.31;;;20.71;54.40
68145;BME280;55400;51.824;-0.196;2022-08-27T11:07:33;100985.09;;;20.76;54.26
68145;BME280;55400;51.824;-0.196;2022-08-27T11:10:04;100988.72;;;20.87;54.13
68145;BME280;55400;51.824;-0.196;2022-08-27T11:12:38;100993.94;;;20.88;54.13
68145;BME280;55400;51.824;-0.196;2022-08-27T11:15:17;100990.41;;;20.88;53.94
68145;BME280;55400;51.824;-0.196;2022-08-27T11:18:00;100992.88;;;20.79;54.25
68145;BME280;55400;51.824;-0.196;2022-08-27T11:20:35;100994.72;;;20.79;54.29
68145;BME280;55400;51.824;-0.196;2022-08-27T11:23:09;100983.88;;;20.80;54.41
68145;BME280;55400;51.824;-0.196;2022-08-27T11:28:05;100989.75;;;20.95;54.17
68145;BME280;55400;51.824;-0.196;2022-08-27T11:30:39;100985.31;;;21.06;53.28
68145;BME280;55400;51.824;-0.196;2022-08-27T11:41:53;100979.03;;;20.95;53.44
68145;BME280;55400;51.824;-0.196;2022-08-27T11:44:25;100984.91;;;20.89;53.64
68145;BME280;55400;51.824;-0.196;2022-08-27T11:47:23;100975.84;;;20.80;53.20
68145;BME280;55400;51.824;-0.196;2022-08-27T11:49:54;100984.25;;;20.76;53.53
68145;BME280;55400;51.824;-0.196;2022-08-27T11:58:05;100987.22;;;20.61;53.19
68145;BME280;55400;51.824;-0.196;2022-08-27T12:00:36;100986.47;;;20.59;53.45
68145;BME280;55400;51.824;-0.196;2022-08-27T12:03:24;100988.56;;;20.56;53.36
68145;BME280;55400;51.824;-0.196;2022-08-27T12:11:07;100970.47;;;20.80;52.83
68145;BME280;55400;51.824;-0.196;2022-08-27T12:16:42;100979.13;;;21.05;51.74
68145;BME280;55400;51.824;-0.196;2022-08-27T12:24:54;100984.00;;;21.00;52.29
68145;BME280;55400;51.824;-0.196;2022-08-27T12:29:55;100992.94;;;20.89;52.39
68145;BME280;55400;51.824;-0.196;2022-08-27T12:40:55;100990.47;;;20.76;52.65
68145;BME280;55400;51.824;-0.196;2022-08-27T12:43:27;100978.84;;;20.87;52.63
68145;BME280;55400;51.824;-0.196;2022-08-27T12:45:58;100983.28;;;20.98;52.33
68145;BME280;55400;51.824;-0.196;2022-08-27T12:48:43;100986.88;;;21.08;52.34
68145;BME280;55400;51.824;-0.196;2022-08-27T12:51:33;100984.41;;;21.16;52.28
68145;BME280;55400;51.824;-0.196;2022-08-27T12:55:24;100988.84;;;21.27;51.73
68145;BME280;55400;51.824;-0.196;2022-08-27T12:57:37;100981.69;;;21.37;51.76
68145;BME280;55400;51.824;-0.196;2022-08-27T13:00:16;100973.69;;;21.47;51.03
68145;BME280;55400;51.824;-0.196;2022-08-27T13:03:28;100978.75;;;21.62;50.73
68145;BME280;55400;51.824;-0.196;2022-08-27T13:05:57;100978.78;;;21.71;50.44
68145;BME280;55400;51.824;-0.196;2022-08-27T13:08:32;100969.91;;;21.81;49.97
68145;BME280;55400;51.824;-0.196;2022-08-27T13:11:08;100975.31;;;21.90;49.54
68145;BME280;55400;51.824;-0.196;2022-08-27T13:13:39;100978.28;;;21.97;48.97
68145;BME280;55400;51.824;-0.196;2022-08-27T13:16:06;100972.50;;;22.02;48.68
68145;BME280;55400;51.824;-0.196;2022-08-27T13:18:34;100968.84;;;22.03;48.59
68145;BME280;55400;51.824;-0.196;2022-08-27T13:23:32;100972.22;;;21.95;48.37
68145;BME280;55400;51.824;-0.196;2022-08-27T13:26:07;100953.72;;;22.02;48.51
68145;BME280;55400;51.824;-0.196;2022-08-27T13:28:38;100958.72;;;22.16;48.08
68145;BME280;55400;51.824;-0.196;2022-08-27T13:31:06;100956.34;;;22.33;47.64
68145;BME280;55400;51.824;-0.196;2022-08-27T13:33:36;100954.53;;;22.43;47.21
68145;BME280;55400;51.824;-0.196;2022-08-27T13:36:04;100961.31;;;22.37;47.68
68145;BME280;55400;51.824;-0.196;2022-08-27T13:38:41;100951.34;;;22.28;47.22
68145;BME280;55400;51.824;-0.196;2022-08-27T13:41:27;100950.66;;;22.16;47.37
68145;BME280;55400;51.824;-0.196;2022-08-27T13:43:54;100952.03;;;22.10;47.46
68145;BME280;55400;51.824;-0.196;2022-08-27T13:46:27;100949.66;;;22.17;47.63
68145;BME280;55400;51.824;-0.196;2022-08-27T13:48:57;100942.88;;;22.23;47.38
68145;BME280;55400;51.824;-0.196;2022-08-27T13:51:29;100944.00;;;22.20;47.02
68145;BME280;55400;51.824;-0.196;2022-08-27T13:53:59;100937.94;;;22.18;47.06
68145;BME280;55400;51.824;-0.196;2022-08-27T13:59:24;100932.59;;;22.48;46.25
68145;BME280;55400;51.824;-0.196;2022-08-27T14:04:42;100931.84;;;22.85;46.14
68145;BME280;55400;51.824;-0.196;2022-08-27T14:09:53;100932.53;;;23.06;44.84
68145;BME280;55400;51.824;-0.196;2022-08-27T14:12:34;100933.09;;;23.00;44.77
68145;BME280;55400;51.824;-0.196;2022-08-27T14:17:41;100935.25;;;22.77;46.13
68145;BME280;55400;51.824;-0.196;2022-08-27T14:20:12;100934.97;;;22.80;45.88
68145;BME280;55400;51.824;-0.196;2022-08-27T14:22:39;100934.97;;;22.90;45.70
68145;BME280;55400;51.824;-0.196;2022-08-27T14:25:06;100941.59;;;22.95;45.44
68145;BME280;55400;51.824;-0.196;2022-08-27T14:27:35;100933.97;;;23.00;45.02
68145;BME280;55400;51.824;-0.196;2022-08-27T14:30:03;100937.94;;;22.96;44.69
68145;BME280;55400;51.824;-0.196;2022-08-27T14:32:30;100933.53;;;22.95;44.95
68145;BME280;55400;51.824;-0.196;2022-08-27T14:34:58;100934.94;;;22.99;45.78
68145;BME280;55400;51.824;-0.196;2022-08-27T14:37:25;100938.91;;;23.05;45.74
68145;BME280;55400;51.824;-0.196;2022-08-27T14:39:52;100930.69;;;23.07;44.98
68145;BME280;55400;51.824;-0.196;2022-08-27T14:42:20;100945.13;;;23.06;45.28